Opotiki Weather Station Historical Data
Version 3.4b - 01-Dec-2017
Daily Summary for December 9, 2018 Units:  Metric    English   Both
« Previous Day
Next Day »
Daily Weekly Monthly Yearly Custom
  High: Low: Average:
Temperature: 27.2 °C 15.5 °C 20.7 °C
Dew Point: 17.3 °C 13.3 °C 14.9 °C
Humidity: 93% 49% 71%
Wind Speed: 8.7km/h 0.0km/h 1.5km/h
Wind Gust: 12.2km/h - -
Wind- - SSW
Pressure: 1020.3 hPa 1014.1 hPa -
Precipitation: 0.0 mm    
Historical Graphs
 
 
Tabular Data for December 9, 2018
Time Temperature Dew Point Pressure Wind Wind Speed Wind Gust Humidity Rain Rate (Hrly) Rain Day
00:04 16.2 °C 13.3 °C 1020.3 hPa Calm     83% 0.0 mm 0.0mm
00:08 16.2 °C 13.3 °C 1020.3 hPa Calm     83% 0.0 mm 0.0mm
00:14 16.2 °C 13.3 °C 1020.2 hPa Calm     83% 0.0 mm 0.0mm
00:18 16.2 °C 13.3 °C 1020.3 hPa Calm     83% 0.0 mm 0.0mm
00:24 16.2 °C 13.5 °C 1020.2 hPa Calm     84% 0.0 mm 0.0mm
00:28 16.2 °C 13.5 °C 1020.1 hPa Calm     84% 0.0 mm 0.0mm
00:34 16.1 °C 13.4 °C 1020.0 hPa Calm     84% 0.0 mm 0.0mm
00:38 16.1 °C 13.4 °C 1020.2 hPa Calm     84% 0.0 mm 0.0mm
00:44 16.1 °C 13.4 °C 1020.0 hPa Calm     84% 0.0 mm 0.0mm
00:48 16.0 °C 13.3 °C 1019.9 hPa Calm     84% 0.0 mm 0.0mm
00:54 16.0 °C 13.3 °C 1019.7 hPa Calm     84% 0.0 mm 0.0mm
00:58 16.0 °C 13.3 °C 1019.8 hPa Calm     84% 0.0 mm 0.0mm
01:04 16.0 °C 13.3 °C 1019.8 hPa Calm     84% 0.0 mm 0.0mm
01:08 16.0 °C 13.3 °C 1019.7 hPa Calm     84% 0.0 mm 0.0mm
01:14 16.0 °C 13.5 °C 1019.7 hPa Calm   2.6 km/h 85% 0.0 mm 0.0mm
01:18 16.0 °C 13.5 °C 1019.7 hPa Calm   2.6 km/h 85% 0.0 mm 0.0mm
01:24 16.0 °C 13.5 °C 1019.7 hPa Calm     85% 0.0 mm 0.0mm
01:28 16.0 °C 13.5 °C 1019.7 hPa Calm     85% 0.0 mm 0.0mm
01:34 16.0 °C 13.5 °C 1019.4 hPa Calm     85% 0.0 mm 0.0mm
01:38 15.9 °C 13.6 °C 1019.4 hPa Calm     86% 0.0 mm 0.0mm
01:44 15.9 °C 13.6 °C 1019.4 hPa Calm     86% 0.0 mm 0.0mm
01:48 15.9 °C 13.6 °C 1019.4 hPa Calm     86% 0.0 mm 0.0mm
01:54 15.8 °C 13.4 °C 1019.0 hPa Calm     86% 0.0 mm 0.0mm
01:58 15.8 °C 13.4 °C 1019.1 hPa Calm     86% 0.0 mm 0.0mm
02:04 15.8 °C 13.4 °C 1019.2 hPa Calm     86% 0.0 mm 0.0mm
02:08 15.8 °C 13.4 °C 1019.1 hPa Calm   1.1 km/h 86% 0.0 mm 0.0mm
02:14 15.8 °C 13.4 °C 1019.0 hPa Calm   1.1 km/h 86% 0.0 mm 0.0mm
02:18 15.8 °C 13.7 °C 1019.0 hPa Calm   1.1 km/h 87% 0.0 mm 0.0mm
02:24 15.8 °C 13.7 °C 1018.8 hPa Calm   1.1 km/h 87% 0.0 mm 0.0mm
02:28 15.8 °C 13.7 °C 1018.9 hPa Calm   1.1 km/h 87% 0.0 mm 0.0mm
02:34 15.8 °C 13.7 °C 1018.7 hPa Calm   1.1 km/h 87% 0.0 mm 0.0mm
02:38 15.8 °C 13.7 °C 1018.6 hPa Calm   1.1 km/h 87% 0.0 mm 0.0mm
02:44 15.8 °C 13.7 °C 1018.6 hPa Calm   1.1 km/h 87% 0.0 mm 0.0mm
02:48 15.8 °C 13.7 °C 1018.6 hPa Calm   1.1 km/h 87% 0.0 mm 0.0mm
02:54 15.7 °C 13.6 °C 1018.3 hPa Calm   1.1 km/h 87% 0.0 mm 0.0mm
02:58 15.7 °C 13.6 °C 1018.3 hPa Calm   1.1 km/h 87% 0.0 mm 0.0mm
03:04 15.7 °C 13.6 °C 1018.4 hPa Calm   1.1 km/h 87% 0.0 mm 0.0mm
03:08 15.6 °C 13.4 °C 1018.3 hPa Calm   3.5 km/h 87% 0.0 mm 0.0mm
03:14 15.6 °C 13.6 °C 1018.2 hPa Calm   3.5 km/h 88% 0.0 mm 0.0mm
03:18 15.5 °C 13.6 °C 1018.1 hPa Calm   1.1 km/h 88% 0.0 mm 0.0mm
03:24 15.5 °C 13.6 °C 1018.3 hPa Calm   2.6 km/h 88% 0.0 mm 0.0mm
03:28 15.5 °C 13.6 °C 1018.2 hPa Calm   2.6 km/h 88% 0.0 mm 0.0mm
03:34 15.5 °C 13.6 °C 1018.1 hPa Calm   1.1 km/h 88% 0.0 mm 0.0mm
03:38 15.5 °C 13.6 °C 1017.9 hPa Calm   1.1 km/h 88% 0.0 mm 0.0mm
03:44 15.5 °C 13.6 °C 1018.0 hPa Calm   1.1 km/h 88% 0.0 mm 0.0mm
03:48 15.5 °C 13.6 °C 1018.0 hPa Calm   1.1 km/h 88% 0.0 mm 0.0mm
03:54 15.5 °C 13.6 °C 1018.1 hPa Calm   2.6 km/h 88% 0.0 mm 0.0mm
03:58 15.5 °C 13.6 °C 1018.0 hPa Calm   2.6 km/h 88% 0.0 mm 0.0mm
04:04 15.5 °C 13.6 °C 1018.1 hPa Calm   1.1 km/h 88% 0.0 mm 0.0mm
04:08 15.5 °C 13.6 °C 1018.1 hPa Calm   1.1 km/h 88% 0.0 mm 0.0mm
04:14 15.5 °C 13.6 °C 1018.0 hPa Calm   1.1 km/h 88% 0.0 mm 0.0mm
04:18 15.5 °C 13.6 °C 1018.0 hPa Calm   1.1 km/h 88% 0.0 mm 0.0mm
04:24 15.5 °C 13.6 °C 1017.8 hPa Calm   1.1 km/h 88% 0.0 mm 0.0mm
04:28 15.5 °C 13.6 °C 1017.8 hPa Calm   1.1 km/h 88% 0.0 mm 0.0mm
04:34 15.5 °C 13.6 °C 1018.0 hPa Calm   1.1 km/h 88% 0.0 mm 0.0mm
04:38 15.5 °C 13.6 °C 1017.9 hPa Calm   1.1 km/h 88% 0.0 mm 0.0mm
04:44 15.5 °C 13.6 °C 1017.9 hPa Calm   1.1 km/h 88% 0.0 mm 0.0mm
04:48 15.6 °C 13.6 °C 1018.0 hPa Calm     88% 0.0 mm 0.0mm
04:54 15.6 °C 13.8 °C 1018.0 hPa Calm     89% 0.0 mm 0.0mm
04:58 15.6 °C 13.8 °C 1017.9 hPa Calm   2.6 km/h 89% 0.0 mm 0.0mm
05:04 15.6 °C 13.8 °C 1017.8 hPa Calm   3.5 km/h 89% 0.0 mm 0.0mm
05:08 15.5 °C 13.7 °C 1018.0 hPa Calm   3.5 km/h 89% 0.0 mm 0.0mm
05:14 15.5 °C 13.7 °C 1017.9 hPa Calm   3.5 km/h 89% 0.0 mm 0.0mm
05:18 15.5 °C 13.7 °C 1017.9 hPa Calm   3.5 km/h 89% 0.0 mm 0.0mm
05:24 15.5 °C 13.7 °C 1018.2 hPa Calm   1.1 km/h 89% 0.0 mm 0.0mm
05:28 15.5 °C 13.7 °C 1018.1 hPa Calm   1.1 km/h 89% 0.0 mm 0.0mm
05:34 15.5 °C 13.7 °C 1018.1 hPa Calm   1.1 km/h 89% 0.0 mm 0.0mm
05:38 15.5 °C 13.7 °C 1018.1 hPa Calm     89% 0.0 mm 0.0mm
05:44 15.5 °C 13.7 °C 1018.1 hPa Calm   1.1 km/h 89% 0.0 mm 0.0mm
05:48 15.5 °C 13.7 °C 1018.1 hPa Calm   1.1 km/h 89% 0.0 mm 0.0mm
05:54 15.6 °C 13.8 °C 1018.2 hPa Calm     89% 0.0 mm 0.0mm
05:58 15.6 °C 13.8 °C 1018.2 hPa Calm     89% 0.0 mm 0.0mm
06:04 15.6 °C 14.0 °C 1018.2 hPa Calm     90% 0.0 mm 0.0mm
06:08 15.6 °C 14.0 °C 1018.2 hPa Calm   1.1 km/h 90% 0.0 mm 0.0mm
06:14 15.7 °C 14.1 °C 1018.1 hPa Calm   1.1 km/h 90% 0.0 mm 0.0mm
06:18 15.8 °C 14.2 °C 1018.2 hPa Calm   1.1 km/h 90% 0.0 mm 0.0mm
06:24 16.0 °C 14.2 °C 1018.2 hPa Calm   1.1 km/h 89% 0.0 mm 0.0mm
06:28 16.1 °C 14.3 °C 1018.1 hPa Calm   1.1 km/h 89% 0.0 mm 0.0mm
06:34 16.2 °C 14.4 °C 1018.0 hPa Calm   1.1 km/h 89% 0.0 mm 0.0mm
06:38 16.3 °C 14.5 °C 1017.9 hPa Calm   1.1 km/h 89% 0.0 mm 0.0mm
06:44 16.5 °C 14.7 °C 1017.9 hPa Calm   3.5 km/h 89% 0.0 mm 0.0mm
06:48 16.6 °C 14.8 °C 1018.0 hPa Calm   3.5 km/h 89% 0.0 mm 0.0mm
06:54 16.9 °C 15.1 °C 1018.1 hPa Calm   2.6 km/h 89% 0.0 mm 0.0mm
06:58 17.0 °C 15.0 °C 1018.1 hPa Calm   2.6 km/h 88% 0.0 mm 0.0mm
07:04 17.3 °C 15.1 °C 1018.3 hPa Calm   2.6 km/h 87% 0.0 mm 0.0mm
07:08 17.4 °C 15.1 °C 1018.1 hPa SW 1.1 km/h 3.5 km/h 86% 0.0 mm 0.0mm
07:14 17.5 °C 14.9 °C 1018.2 hPa Calm   3.5 km/h 85% 0.0 mm 0.0mm
07:18 17.7 °C 15.2 °C 1018.2 hPa Calm   2.6 km/h 85% 0.0 mm 0.0mm
07:24 17.9 °C 15.2 °C 1017.9 hPa Calm   3.5 km/h 84% 0.0 mm 0.0mm
07:28 18.0 °C 15.3 °C 1017.8 hPa Calm   3.5 km/h 84% 0.0 mm 0.0mm
07:34 18.5 °C 15.6 °C 1018.1 hPa Calm   2.6 km/h 83% 0.0 mm 0.0mm
07:38 19.1 °C 15.9 °C 1018.0 hPa Calm   2.6 km/h 82% 0.0 mm 0.0mm
07:44 20.1 °C 16.8 °C 1018.0 hPa ENE 1.1 km/h 2.6 km/h 81% 0.0 mm 0.0mm
07:48 21.0 °C 16.6 °C 1018.1 hPa NNW 1.1 km/h 2.6 km/h 76% 0.0 mm 0.0mm
07:54 21.4 °C 15.7 °C 1018.0 hPa Calm   2.6 km/h 70% 0.0 mm 0.0mm
07:58 21.7 °C 15.8 °C 1018.0 hPa Calm   2.6 km/h 69% 0.0 mm 0.0mm
08:04 22.1 °C 15.4 °C 1018.0 hPa Calm   3.5 km/h 66% 0.0 mm 0.0mm
08:08 22.6 °C 15.7 °C 1017.9 hPa Calm   3.5 km/h 65% 0.0 mm 0.0mm
08:14 23.5 °C 16.3 °C 1017.9 hPa West 1.1 km/h 3.5 km/h 64% 0.0 mm 0.0mm
08:18 23.3 °C 15.6 °C 1017.8 hPa WSW 1.1 km/h 3.5 km/h 62% 0.0 mm 0.0mm
08:24 23.2 °C 15.0 °C 1017.8 hPa WSW 1.1 km/h 3.5 km/h 60% 0.0 mm 0.0mm
08:28 23.0 °C 15.3 °C 1017.9 hPa Calm   5.0 km/h 62% 0.0 mm 0.0mm
08:34 24.0 °C 15.0 °C 1017.9 hPa NW 1.1 km/h 5.0 km/h 57% 0.0 mm 0.0mm
08:38 24.4 °C 15.1 °C 1017.7 hPa NW 1.1 km/h 3.5 km/h 56% 0.0 mm 0.0mm
08:44 25.2 °C 15.3 °C 1017.8 hPa Calm   3.5 km/h 54% 0.0 mm 0.0mm
08:48 25.1 °C 14.9 °C 1017.8 hPa West 2.6 km/h 3.5 km/h 53% 0.0 mm 0.0mm
08:54 25.7 °C 15.1 °C 1018.0 hPa West 1.1 km/h 3.5 km/h 52% 0.0 mm 0.0mm
08:58 26.2 °C 15.0 °C 1017.8 hPa Calm   5.0 km/h 50% 0.0 mm 0.0mm
09:04 26.2 °C 15.3 °C 1017.8 hPa Calm   5.0 km/h 51% 0.0 mm 0.0mm
09:08 26.1 °C 14.6 °C 1017.6 hPa Calm   5.0 km/h 49% 0.0 mm 0.0mm
09:14 26.6 °C 15.1 °C 1017.6 hPa NNW 1.1 km/h 5.0 km/h 49% 0.0 mm 0.0mm
09:18 26.8 °C 15.2 °C 1017.6 hPa WNW 1.1 km/h 5.0 km/h 49% 0.0 mm 0.0mm
09:24 26.4 °C 14.8 °C 1017.4 hPa West 1.1 km/h 5.0 km/h 49% 0.0 mm 0.0mm
09:28 25.5 °C 14.3 °C 1017.5 hPa WNW 2.6 km/h 7.2 km/h 50% 0.0 mm 0.0mm
09:34 25.7 °C 15.1 °C 1017.4 hPa WNW 2.6 km/h 7.2 km/h 52% 0.0 mm 0.0mm
09:38 25.7 °C 14.5 °C 1017.4 hPa WNW 1.1 km/h 6.1 km/h 50% 0.0 mm 0.0mm
09:44 25.6 °C 14.7 °C 1017.2 hPa WNW 2.6 km/h 8.7 km/h 51% 0.0 mm 0.0mm
09:48 25.2 °C 14.4 °C 1017.2 hPa Calm   8.7 km/h 51% 0.0 mm 0.0mm
09:54 25.7 °C 14.5 °C 1017.1 hPa NW 3.5 km/h 6.1 km/h 50% 0.0 mm 0.0mm
09:58 25.5 °C 14.9 °C 1017.1 hPa North 5.0 km/h 9.7 km/h 52% 0.0 mm 0.0mm
10:04 24.7 °C 14.8 °C 1017.0 hPa NNW 3.5 km/h 9.7 km/h 54% 0.0 mm 0.0mm
10:08 24.4 °C 15.1 °C 1017.1 hPa North 3.5 km/h 9.7 km/h 56% 0.0 mm 0.0mm
10:14 24.5 °C 15.4 °C 1016.9 hPa NNE 2.6 km/h 9.7 km/h 57% 0.0 mm 0.0mm
10:18 24.6 °C 15.6 °C 1016.9 hPa NW 6.1 km/h 9.7 km/h 57% 0.0 mm 0.0mm
10:24 24.0 °C 15.5 °C 1016.8 hPa WNW 3.5 km/h 11.1 km/h 59% 0.0 mm 0.0mm
10:28 24.3 °C 15.5 °C 1016.9 hPa WNW 6.1 km/h 11.1 km/h 58% 0.0 mm 0.0mm
10:34 24.2 °C 15.4 °C 1016.6 hPa North 5.0 km/h 11.1 km/h 58% 0.0 mm 0.0mm
10:38 24.2 °C 15.2 °C 1016.7 hPa North 5.0 km/h 12.2 km/h 57% 0.0 mm 0.0mm
10:44 24.5 °C 15.4 °C 1016.7 hPa NNW 3.5 km/h 12.2 km/h 57% 0.0 mm 0.0mm
10:48 24.5 °C 15.2 °C 1016.6 hPa NW 5.0 km/h 9.7 km/h 56% 0.0 mm 0.0mm
10:54 24.8 °C 15.4 °C 1016.4 hPa WNW 3.5 km/h 9.7 km/h 56% 0.0 mm 0.0mm
10:58 25.2 °C 15.3 °C 1016.3 hPa NNW 3.5 km/h 9.7 km/h 54% 0.0 mm 0.0mm
11:04 25.4 °C 14.8 °C 1016.4 hPa NW 2.6 km/h 8.7 km/h 52% 0.0 mm 0.0mm
11:08 25.4 °C 15.2 °C 1016.3 hPa NW 5.0 km/h 9.7 km/h 53% 0.0 mm 0.0mm
11:14 25.1 °C 14.6 °C 1016.2 hPa NNW 5.0 km/h 11.1 km/h 52% 0.0 mm 0.0mm
11:18 25.1 °C 15.4 °C 1016.3 hPa NW 2.6 km/h 11.1 km/h 55% 0.0 mm 0.0mm
11:24 25.3 °C 15.1 °C 1016.3 hPa WNW 3.5 km/h 9.7 km/h 53% 0.0 mm 0.0mm
11:28 25.2 °C 15.6 °C 1016.1 hPa West 5.0 km/h 12.2 km/h 55% 0.0 mm 0.0mm
11:34 25.4 °C 16.0 °C 1016.1 hPa WNW 1.1 km/h 12.2 km/h 56% 0.0 mm 0.0mm
11:38 26.1 °C 16.1 °C 1016.2 hPa North 5.0 km/h 11.1 km/h 54% 0.0 mm 0.0mm
11:44 26.3 °C 15.7 °C 1016.0 hPa NNW 3.5 km/h 8.7 km/h 52% 0.0 mm 0.0mm
11:48 25.8 °C 15.5 °C 1015.8 hPa WNW 3.5 km/h 11.1 km/h 53% 0.0 mm 0.0mm
11:54 25.8 °C 15.5 °C 1016.0 hPa NNW 5.0 km/h 11.1 km/h 53% 0.0 mm 0.0mm
11:58 25.7 °C 15.7 °C 1015.9 hPa NNE 2.6 km/h 9.7 km/h 54% 0.0 mm 0.0mm
12:04 25.8 °C 16.1 °C 1015.8 hPa West 5.0 km/h 9.7 km/h 55% 0.0 mm 0.0mm
12:08 25.8 °C 16.1 °C 1016.0 hPa West 5.0 km/h 8.7 km/h 55% 0.0 mm 0.0mm
12:14 25.8 °C 16.1 °C 1015.7 hPa NNE 5.0 km/h 9.7 km/h 55% 0.0 mm 0.0mm
12:18 26.1 °C 16.1 °C 1015.8 hPa ENE 3.5 km/h 9.7 km/h 54% 0.0 mm 0.0mm
12:24 25.8 °C 15.5 °C 1015.6 hPa NNE 3.5 km/h 8.7 km/h 53% 0.0 mm 0.0mm
12:28 25.8 °C 16.1 °C 1015.6 hPa NNW 3.5 km/h 8.7 km/h 55% 0.0 mm 0.0mm
12:34 26.1 °C 15.8 °C 1015.5 hPa NE 6.1 km/h 9.7 km/h 53% 0.0 mm 0.0mm
12:38 25.7 °C 15.7 °C 1015.5 hPa NE 2.6 km/h 9.7 km/h 54% 0.0 mm 0.0mm
12:44 25.8 °C 16.4 °C 1015.5 hPa NNW 3.5 km/h 9.7 km/h 56% 0.0 mm 0.0mm
12:48 25.7 °C 16.0 °C 1015.5 hPa NW 2.6 km/h 9.7 km/h 55% 0.0 mm 0.0mm
12:54 25.8 °C 16.4 °C 1015.4 hPa NNW 5.0 km/h 11.1 km/h 56% 0.0 mm 0.0mm
12:58 26.1 °C 16.1 °C 1015.3 hPa NNW 7.2 km/h 11.1 km/h 54% 0.0 mm 0.0mm
13:04 25.8 °C 15.5 °C 1015.2 hPa North 2.6 km/h 11.1 km/h 53% 0.0 mm 0.0mm
13:08 26.1 °C 16.4 °C 1015.2 hPa NNE 5.0 km/h 11.1 km/h 55% 0.0 mm 0.0mm
13:14 25.8 °C 16.4 °C 1015.1 hPa North 2.6 km/h 11.1 km/h 56% 0.0 mm 0.0mm
13:18 25.8 °C 16.4 °C 1014.9 hPa North 3.5 km/h 11.1 km/h 56% 0.0 mm 0.0mm
13:24 25.8 °C 16.1 °C 1015.0 hPa NNW 2.6 km/h 9.7 km/h 55% 0.0 mm 0.0mm
13:28 25.7 °C 16.6 °C 1015.0 hPa North 5.0 km/h 9.7 km/h 57% 0.0 mm 0.0mm
13:34 25.8 °C 16.7 °C 1014.9 hPa NE 3.5 km/h 11.1 km/h 57% 0.0 mm 0.0mm
13:38 25.6 °C 17.3 °C 1014.8 hPa ENE 5.0 km/h 12.2 km/h 60% 0.0 mm 0.0mm
13:44 25.5 °C 16.7 °C 1014.8 hPa NE 5.0 km/h 12.2 km/h 58% 0.0 mm 0.0mm
13:48 25.5 °C 17.2 °C 1014.8 hPa ENE 3.5 km/h 11.1 km/h 60% 0.0 mm 0.0mm
13:54 25.8 °C 16.9 °C 1014.8 hPa North 3.5 km/h 11.1 km/h 58% 0.0 mm 0.0mm
13:58 25.8 °C 16.9 °C 1014.7 hPa North 6.1 km/h 9.7 km/h 58% 0.0 mm 0.0mm
14:04 25.8 °C 16.7 °C 1014.6 hPa North 5.0 km/h 9.7 km/h 57% 0.0 mm 0.0mm
14:08 25.3 °C 16.2 °C 1014.7 hPa NNW 2.6 km/h 9.7 km/h 57% 0.0 mm 0.0mm
14:14 25.4 °C 17.1 °C 1014.6 hPa NW 5.0 km/h 9.7 km/h 60% 0.0 mm 0.0mm
14:18 25.5 °C 16.9 °C 1014.7 hPa WNW 1.1 km/h 8.7 km/h 59% 0.0 mm 0.0mm
14:24 25.8 °C 16.7 °C 1014.7 hPa North 5.0 km/h 8.7 km/h 57% 0.0 mm 0.0mm
14:28 25.7 °C 16.3 °C 1014.6 hPa North 3.5 km/h 8.7 km/h 56% 0.0 mm 0.0mm
14:34 25.7 °C 16.6 °C 1014.5 hPa NE 3.5 km/h 12.2 km/h 57% 0.0 mm 0.0mm
14:38 25.7 °C 16.6 °C 1014.6 hPa East 3.5 km/h 12.2 km/h 57% 0.0 mm 0.0mm
14:44 25.8 °C 16.4 °C 1014.4 hPa ENE 6.1 km/h 11.1 km/h 56% 0.0 mm 0.0mm
14:48 25.8 °C 16.4 °C 1014.6 hPa NNE 5.0 km/h 9.7 km/h 56% 0.0 mm 0.0mm
14:54 26.4 °C 16.1 °C 1014.3 hPa NNW 6.1 km/h 9.7 km/h 53% 0.0 mm 0.0mm
14:58 25.8 °C 16.1 °C 1014.6 hPa East 5.0 km/h 9.7 km/h 55% 0.0 mm 0.0mm
15:04 26.2 °C 15.9 °C 1014.3 hPa North 3.5 km/h 11.1 km/h 53% 0.0 mm 0.0mm
15:08 26.2 °C 15.9 °C 1014.5 hPa NNW 5.0 km/h 11.1 km/h 53% 0.0 mm 0.0mm
15:14 26.5 °C 16.2 °C 1014.5 hPa NNE 2.6 km/h 8.7 km/h 53% 0.0 mm 0.0mm
15:18 26.6 °C 16.3 °C 1014.6 hPa North 2.6 km/h 8.7 km/h 53% 0.0 mm 0.0mm
15:24 26.5 °C 16.2 °C 1014.6 hPa NNE 3.5 km/h 9.7 km/h 53% 0.0 mm 0.0mm
15:28 26.5 °C 16.2 °C 1014.6 hPa NE 8.7 km/h 11.1 km/h 53% 0.0 mm 0.0mm
15:34 26.6 °C 16.3 °C 1014.6 hPa North 2.6 km/h 11.1 km/h 53% 0.0 mm 0.0mm
15:38 26.7 °C 16.3 °C 1014.6 hPa NNW 2.6 km/h 11.1 km/h 53% 0.0 mm 0.0mm
15:44 26.6 °C 15.9 °C 1014.6 hPa North 5.0 km/h 9.7 km/h 52% 0.0 mm 0.0mm
15:48 26.5 °C 16.4 °C 1014.6 hPa North 3.5 km/h 9.7 km/h 54% 0.0 mm 0.0mm
15:54 26.5 °C 16.2 °C 1014.7 hPa NW 3.5 km/h 8.7 km/h 53% 0.0 mm 0.0mm
15:58 26.7 °C 16.1 °C 1014.7 hPa NNW 5.0 km/h 8.7 km/h 52% 0.0 mm 0.0mm
16:04 26.5 °C 15.9 °C 1014.7 hPa North 3.5 km/h 9.7 km/h 52% 0.0 mm 0.0mm
16:08 26.5 °C 16.2 °C 1014.8 hPa ENE 3.5 km/h 9.7 km/h 53% 0.0 mm 0.0mm
16:14 26.9 °C 16.6 °C 1014.7 hPa NE 3.5 km/h 8.7 km/h 53% 0.0 mm 0.0mm
16:18 27.2 °C 16.2 °C 1014.6 hPa North 5.0 km/h 7.2 km/h 51% 0.0 mm 0.0mm
16:24 26.3 °C 15.4 °C 1014.7 hPa NNE 2.6 km/h 8.7 km/h 51% 0.0 mm 0.0mm
16:28 25.9 °C 15.9 °C 1014.7 hPa NE 3.5 km/h 8.7 km/h 54% 0.0 mm 0.0mm
16:34 25.8 °C 16.7 °C 1014.6 hPa NNW 2.6 km/h 8.7 km/h 57% 0.0 mm 0.0mm
16:38 26.2 °C 16.2 °C 1014.6 hPa North 2.6 km/h 9.7 km/h 54% 0.0 mm 0.0mm
16:44 27.0 °C 16.0 °C 1014.5 hPa NNE 5.0 km/h 9.7 km/h 51% 0.0 mm 0.0mm
16:48 26.6 °C 15.7 °C 1014.4 hPa North 3.5 km/h 8.7 km/h 51% 0.0 mm 0.0mm
16:54 26.7 °C 16.1 °C 1014.4 hPa NNW 2.6 km/h 8.7 km/h 52% 0.0 mm 0.0mm
16:58 26.7 °C 16.1 °C 1014.3 hPa North 3.5 km/h 8.7 km/h 52% 0.0 mm 0.0mm
17:04 25.9 °C 15.9 °C 1014.5 hPa North 3.5 km/h 8.7 km/h 54% 0.0 mm 0.0mm
17:08 25.9 °C 16.2 °C 1014.3 hPa ENE 3.5 km/h 9.7 km/h 55% 0.0 mm 0.0mm
17:14 25.8 °C 15.8 °C 1014.4 hPa ENE 3.5 km/h 9.7 km/h 54% 0.0 mm 0.0mm
17:18 24.9 °C 15.6 °C 1014.2 hPa ENE 2.6 km/h 8.7 km/h 56% 0.0 mm 0.0mm
17:24 25.3 °C 16.2 °C 1014.2 hPa East 2.6 km/h 7.2 km/h 57% 0.0 mm 0.0mm
17:28 25.1 °C 15.7 °C 1014.4 hPa ENE 2.6 km/h 7.2 km/h 56% 0.0 mm 0.0mm
17:34 24.7 °C 16.2 °C 1014.4 hPa ENE 2.6 km/h 7.2 km/h 59% 0.0 mm 0.0mm
17:38 24.7 °C 15.9 °C 1014.2 hPa North 2.6 km/h 7.2 km/h 58% 0.0 mm 0.0mm
17:44 23.7 °C 15.8 °C 1014.1 hPa North 1.1 km/h 7.2 km/h 61% 0.0 mm 0.0mm
17:48 24.5 °C 16.5 °C 1014.3 hPa NNE 1.1 km/h 7.2 km/h 61% 0.0 mm 0.0mm
17:54 23.3 °C 15.6 °C 1014.3 hPa NNE 1.1 km/h 5.0 km/h 62% 0.0 mm 0.0mm
17:58 22.8 °C 15.4 °C 1014.2 hPa NNE 1.1 km/h 5.0 km/h 63% 0.0 mm 0.0mm
18:04 22.6 °C 15.7 °C 1014.4 hPa NNE 2.6 km/h 6.1 km/h 65% 0.0 mm 0.0mm
18:08 22.7 °C 15.8 °C 1014.2 hPa NNW 1.1 km/h 6.1 km/h 65% 0.0 mm 0.0mm
18:14 22.9 °C 16.2 °C 1014.1 hPa ENE 1.1 km/h 6.1 km/h 66% 0.0 mm 0.0mm
18:18 24.0 °C 16.8 °C 1014.2 hPa ENE 2.6 km/h 7.2 km/h 64% 0.0 mm 0.0mm
18:24 24.6 °C 16.1 °C 1014.2 hPa North 1.1 km/h 7.2 km/h 59% 0.0 mm 0.0mm
18:28 23.7 °C 15.8 °C 1014.3 hPa North 1.1 km/h 7.2 km/h 61% 0.0 mm 0.0mm
18:34 22.3 °C 14.7 °C 1014.3 hPa North 1.1 km/h 5.0 km/h 62% 0.0 mm 0.0mm
18:38 21.7 °C 14.8 °C 1014.3 hPa NNW 2.6 km/h 5.0 km/h 65% 0.0 mm 0.0mm
18:44 21.4 °C 14.8 °C 1014.3 hPa Calm   3.5 km/h 66% 0.0 mm 0.0mm
18:48 21.4 °C 15.3 °C 1014.3 hPa NNW 3.5 km/h 6.1 km/h 68% 0.0 mm 0.0mm
18:54 21.3 °C 15.4 °C 1014.4 hPa NNW 1.1 km/h 6.1 km/h 69% 0.0 mm 0.0mm
18:58 21.9 °C 15.9 °C 1014.2 hPa NNW 1.1 km/h 6.1 km/h 69% 0.0 mm 0.0mm
19:04 22.7 °C 16.3 °C 1014.1 hPa NNW 1.1 km/h 5.0 km/h 67% 0.0 mm 0.0mm
19:08 23.7 °C 17.0 °C 1014.2 hPa NNW 1.1 km/h 5.0 km/h 66% 0.0 mm 0.0mm
19:14 24.5 °C 16.5 °C 1014.1 hPa Calm   3.5 km/h 61% 0.0 mm 0.0mm
19:18 24.5 °C 16.0 °C 1014.4 hPa Calm   3.5 km/h 59% 0.0 mm 0.0mm
19:24 23.0 °C 14.8 °C 1014.1 hPa Calm   3.5 km/h 60% 0.0 mm 0.0mm
19:28 23.2 °C 15.3 °C 1014.1 hPa NNW 1.1 km/h 3.5 km/h 61% 0.0 mm 0.0mm
19:34 21.9 °C 15.3 °C 1014.2 hPa North 1.1 km/h 3.5 km/h 66% 0.0 mm 0.0mm
19:38 21.9 °C 15.3 °C 1014.3 hPa Calm   3.5 km/h 66% 0.0 mm 0.0mm
19:44 21.9 °C 15.3 °C 1014.6 hPa Calm   2.6 km/h 66% 0.0 mm 0.0mm
19:48 21.6 °C 15.2 °C 1014.3 hPa Calm   1.1 km/h 67% 0.0 mm 0.0mm
19:54 21.6 °C 15.2 °C 1014.4 hPa Calm   1.1 km/h 67% 0.0 mm 0.0mm
19:58 21.6 °C 15.2 °C 1014.3 hPa Calm   1.1 km/h 67% 0.0 mm 0.0mm
20:04 20.5 °C 15.1 °C 1014.4 hPa Calm   2.6 km/h 71% 0.0 mm 0.0mm
20:08 20.3 °C 14.9 °C 1014.3 hPa NNE 1.1 km/h 2.6 km/h 71% 0.0 mm 0.0mm
20:14 20.0 °C 14.8 °C 1014.3 hPa Calm   2.6 km/h 72% 0.0 mm 0.0mm
20:18 19.8 °C 15.1 °C 1014.3 hPa Calm   2.6 km/h 74% 0.0 mm 0.0mm
20:24 19.5 °C 14.8 °C 1014.4 hPa Calm   2.6 km/h 74% 0.0 mm 0.0mm
20:28 19.2 °C 14.7 °C 1014.3 hPa Calm   2.6 km/h 75% 0.0 mm 0.0mm
20:34 19.0 °C 14.7 °C 1014.2 hPa Calm   1.1 km/h 76% 0.0 mm 0.0mm
20:38 18.8 °C 14.7 °C 1014.4 hPa Calm   1.1 km/h 77% 0.0 mm 0.0mm
20:44 18.4 °C 14.5 °C 1014.5 hPa Calm   1.1 km/h 78% 0.0 mm 0.0mm
20:48 18.1 °C 14.4 °C 1014.4 hPa Calm   1.1 km/h 79% 0.0 mm 0.0mm
20:54 17.9 °C 14.2 °C 1014.4 hPa Calm     79% 0.0 mm 0.0mm
20:58 17.7 °C 14.2 °C 1014.6 hPa Calm     80% 0.0 mm 0.0mm
21:04 17.4 °C 13.9 °C 1014.5 hPa Calm     80% 0.0 mm 0.0mm
21:08 17.2 °C 13.9 °C 1014.7 hPa Calm     81% 0.0 mm 0.0mm
21:14 16.9 °C 13.8 °C 1014.7 hPa Calm     82% 0.0 mm 0.0mm
21:18 16.7 °C 13.8 °C 1014.9 hPa Calm     83% 0.0 mm 0.0mm
21:24 16.6 °C 13.7 °C 1014.9 hPa Calm     83% 0.0 mm 0.0mm
21:28 16.4 °C 13.7 °C 1014.9 hPa Calm     84% 0.0 mm 0.0mm
21:34 16.2 °C 13.5 °C 1014.8 hPa Calm     84% 0.0 mm 0.0mm
21:38 16.1 °C 13.6 °C 1014.7 hPa Calm     85% 0.0 mm 0.0mm
21:44 16.0 °C 13.5 °C 1014.9 hPa Calm     85% 0.0 mm 0.0mm
21:48 15.9 °C 13.7 °C 1015.1 hPa Calm     87% 0.0 mm 0.0mm
21:54 15.9 °C 13.9 °C 1015.0 hPa Calm     88% 0.0 mm 0.0mm
21:58 15.9 °C 13.9 °C 1015.0 hPa Calm     88% 0.0 mm 0.0mm
22:04 15.8 °C 14.0 °C 1015.2 hPa Calm     89% 0.0 mm 0.0mm
22:08 15.7 °C 13.9 °C 1015.1 hPa Calm     89% 0.0 mm 0.0mm
22:14 15.6 °C 13.8 °C 1015.4 hPa Calm     89% 0.0 mm 0.0mm
22:18 15.7 °C 14.1 °C 1015.2 hPa Calm     90% 0.0 mm 0.0mm
22:24 15.8 °C 14.2 °C 1015.2 hPa Calm     90% 0.0 mm 0.0mm
22:28 15.7 °C 14.1 °C 1015.2 hPa Calm     90% 0.0 mm 0.0mm
22:34 15.7 °C 14.2 °C 1015.3 hPa Calm     91% 0.0 mm 0.0mm
22:38 15.8 °C 14.3 °C 1015.3 hPa Calm     91% 0.0 mm 0.0mm
22:44 15.8 °C 14.3 °C 1015.2 hPa Calm     91% 0.0 mm 0.0mm
22:48 15.9 °C 14.6 °C 1015.2 hPa Calm     92% 0.0 mm 0.0mm
22:54 16.0 °C 14.6 °C 1015.2 hPa Calm     91% 0.0 mm 0.0mm
22:58 16.1 °C 14.6 °C 1015.2 hPa Calm     91% 0.0 mm 0.0mm
23:04 16.2 °C 14.7 °C 1015.3 hPa Calm     91% 0.0 mm 0.0mm
23:08 16.2 °C 14.9 °C 1015.3 hPa Calm     92% 0.0 mm 0.0mm
23:14 16.3 °C 15.0 °C 1015.3 hPa Calm   1.1 km/h 92% 0.0 mm 0.0mm
23:18 16.3 °C 15.0 °C 1015.3 hPa Calm   1.1 km/h 92% 0.0 mm 0.0mm
23:24 16.3 °C 15.0 °C 1015.1 hPa Calm   1.1 km/h 92% 0.0 mm 0.0mm
23:28 16.3 °C 15.0 °C 1015.1 hPa Calm   1.1 km/h 92% 0.0 mm 0.0mm
23:34 16.3 °C 15.2 °C 1015.1 hPa Calm   1.1 km/h 93% 0.0 mm 0.0mm
23:38 16.3 °C 15.2 °C 1014.9 hPa Calm   1.1 km/h 93% 0.0 mm 0.0mm
23:44 16.2 °C 15.1 °C 1015.0 hPa Calm   1.1 km/h 93% 0.0 mm 0.0mm
23:48 16.1 °C 15.0 °C 1015.0 hPa Calm   1.1 km/h 93% 0.0 mm 0.0mm
23:54 16.1 °C 15.0 °C 1015.1 hPa Calm   1.1 km/h 93% 0.0 mm 0.0mm
23:58 16.1 °C 15.0 °C 1014.9 hPa Calm   1.1 km/h 93% 0.0 mm 0.0mm
Opotiki Town Weather
Compliments of Weather Underground - 2.25 mb

NZ Local Weather Forum      Cumulus Top Weather Sites      New Zealand Top40 Weather Station Sites      Flag Counter